sensor_id;sensor_type;location;lat;lon;timestamp;temperature;humidity
22742;DHT22;11538;48.884;8.696;2023-10-08T00:01:04;13.50;99.90
22742;DHT22;11538;48.884;8.696;2023-10-08T00:03:34;13.50;99.90
22742;DHT22;11538;48.884;8.696;2023-10-08T00:06:04;13.40;99.90
22742;DHT22;11538;48.884;8.696;2023-10-08T00:08:39;13.40;99.90
22742;DHT22;11538;48.884;8.696;2023-10-08T00:11:07;13.40;99.90
22742;DHT22;11538;48.884;8.696;2023-10-08T00:13:38;13.40;99.90
22742;DHT22;11538;48.884;8.696;2023-10-08T00:16:13;13.40;99.90
22742;DHT22;11538;48.884;8.696;2023-10-08T00:18:45;13.40;99.90
22742;DHT22;11538;48.884;8.696;2023-10-08T00:21:21;13.40;99.90
22742;DHT22;11538;48.884;8.696;2023-10-08T00:23:55;13.40;99.90
22742;DHT22;11538;48.884;8.696;2023-10-08T00:26:27;13.40;99.90
22742;DHT22;11538;48.884;8.696;2023-10-08T00:29:00;13.30;99.90
22742;DHT22;11538;48.884;8.696;2023-10-08T00:31:48;13.30;99.90
22742;DHT22;11538;48.884;8.696;2023-10-08T00:34:19;13.30;99.90
22742;DHT22;11538;48.884;8.696;2023-10-08T00:36:47;13.30;99.90
22742;DHT22;11538;48.884;8.696;2023-10-08T00:39:15;13.30;99.90
22742;DHT22;11538;48.884;8.696;2023-10-08T00:41:50;13.30;99.90
22742;DHT22;11538;48.884;8.696;2023-10-08T00:44:21;13.30;99.90
22742;DHT22;11538;48.884;8.696;2023-10-08T00:46:50;13.30;99.90
22742;DHT22;11538;48.884;8.696;2023-10-08T00:49:20;13.30;99.90
22742;DHT22;11538;48.884;8.696;2023-10-08T00:52:08;13.30;99.90
22742;DHT22;11538;48.884;8.696;2023-10-08T00:54:53;13.20;99.90
22742;DHT22;11538;48.884;8.696;2023-10-08T00:57:29;13.20;99.90
22742;DHT22;11538;48.884;8.696;2023-10-08T00:59:57;13.10;99.90
22742;DHT22;11538;48.884;8.696;2023-10-08T01:02:27;13.00;99.90
22742;DHT22;11538;48.884;8.696;2023-10-08T01:05:09;13.00;99.90
22742;DHT22;11538;48.884;8.696;2023-10-08T01:07:41;13.00;99.90
22742;DHT22;11538;48.884;8.696;2023-10-08T01:10:15;13.00;99.90
22742;DHT22;11538;48.884;8.696;2023-10-08T01:12:47;13.00;99.90
22742;DHT22;11538;48.884;8.696;2023-10-08T01:15:37;12.90;99.90
22742;DHT22;11538;48.884;8.696;2023-10-08T01:18:04;13.00;99.90
22742;DHT22;11538;48.884;8.696;2023-10-08T01:20:33;13.00;99.90
22742;DHT22;11538;48.884;8.696;2023-10-08T01:23:09;13.00;99.90
22742;DHT22;11538;48.884;8.696;2023-10-08T01:25:40;13.00;99.90
22742;DHT22;11538;48.884;8.696;2023-10-08T01:28:09;13.10;99.90
22742;DHT22;11538;48.884;8.696;2023-10-08T01:30:59;13.10;99.90
22742;DHT22;11538;48.884;8.696;2023-10-08T01:33:31;13.10;99.90
22742;DHT22;11538;48.884;8.696;2023-10-08T01:35:59;13.10;99.90
22742;DHT22;11538;48.884;8.696;2023-10-08T01:38:31;13.10;99.90
22742;DHT22;11538;48.884;8.696;2023-10-08T01:41:02;13.10;99.90
22742;DHT22;11538;48.884;8.696;2023-10-08T01:43:52;13.10;99.90
22742;DHT22;11538;48.884;8.696;2023-10-08T01:46:20;13.10;99.90
22742;DHT22;11538;48.884;8.696;2023-10-08T01:48:49;13.10;99.90
22742;DHT22;11538;48.884;8.696;2023-10-08T01:51:20;13.00;99.90
22742;DHT22;11538;48.884;8.696;2023-10-08T01:54:03;13.00;99.90
22742;DHT22;11538;48.884;8.696;2023-10-08T01:56:41;13.00;99.90
22742;DHT22;11538;48.884;8.696;2023-10-08T01:59:13;13.00;99.90
22742;DHT22;11538;48.884;8.696;2023-10-08T02:01:43;13.00;99.90
22742;DHT22;11538;48.884;8.696;2023-10-08T02:04:12;13.00;99.90
22742;DHT22;11538;48.884;8.696;2023-10-08T02:06:40;13.00;99.90
22742;DHT22;11538;48.884;8.696;2023-10-08T02:09:07;12.90;99.90
22742;DHT22;11538;48.884;8.696;2023-10-08T02:11:47;13.00;99.90
22742;DHT22;11538;48.884;8.696;2023-10-08T02:14:21;12.90;99.90
22742;DHT22;11538;48.884;8.696;2023-10-08T02:16:50;13.00;99.90
22742;DHT22;11538;48.884;8.696;2023-10-08T02:19:23;13.00;99.90
22742;DHT22;11538;48.884;8.696;2023-10-08T02:21:57;13.00;99.90
22742;DHT22;11538;48.884;8.696;2023-10-08T02:24:25;13.00;99.90
22742;DHT22;11538;48.884;8.696;2023-10-08T02:26:52;13.00;99.90
22742;DHT22;11538;48.884;8.696;2023-10-08T02:29:25;13.00;99.90
22742;DHT22;11538;48.884;8.696;2023-10-08T02:31:54;13.00;99.90
22742;DHT22;11538;48.884;8.696;2023-10-08T02:34:21;13.00;99.90
22742;DHT22;11538;48.884;8.696;2023-10-08T02:36:48;13.00;99.90
22742;DHT22;11538;48.884;8.696;2023-10-08T02:39:15;13.00;99.90
22742;DHT22;11538;48.884;8.696;2023-10-08T02:41:53;13.00;99.90
22742;DHT22;11538;48.884;8.696;2023-10-08T02:44:23;13.00;99.90
22742;DHT22;11538;48.884;8.696;2023-10-08T02:46:50;13.00;99.90
22742;DHT22;11538;48.884;8.696;2023-10-08T02:49:20;12.90;99.90
22742;DHT22;11538;48.884;8.696;2023-10-08T02:51:54;12.90;99.90
22742;DHT22;11538;48.884;8.696;2023-10-08T02:54:22;12.90;99.90
22742;DHT22;11538;48.884;8.696;2023-10-08T02:56:59;12.90;99.90
22742;DHT22;11538;48.884;8.696;2023-10-08T02:59:32;12.90;99.90
22742;DHT22;11538;48.884;8.696;2023-10-08T03:02:07;12.90;99.90
22742;DHT22;11538;48.884;8.696;2023-10-08T03:04:49;12.90;99.90
22742;DHT22;11538;48.884;8.696;2023-10-08T03:07:20;12.80;99.90
22742;DHT22;11538;48.884;8.696;2023-10-08T03:09:59;12.70;99.90
22742;DHT22;11538;48.884;8.696;2023-10-08T03:12:33;12.70;99.90
22742;DHT22;11538;48.884;8.696;2023-10-08T03:15:01;12.70;99.90
22742;DHT22;11538;48.884;8.696;2023-10-08T03:17:48;12.70;99.90
22742;DHT22;11538;48.884;8.696;2023-10-08T03:20:19;12.70;99.90
22742;DHT22;11538;48.884;8.696;2023-10-08T03:23:06;12.70;99.90
22742;DHT22;11538;48.884;8.696;2023-10-08T03:25:40;12.70;99.90
22742;DHT22;11538;48.884;8.696;2023-10-08T03:28:12;12.70;99.90
22742;DHT22;11538;48.884;8.696;2023-10-08T03:30:40;12.70;99.90
22742;DHT22;11538;48.884;8.696;2023-10-08T03:33:19;12.70;99.90
22742;DHT22;11538;48.884;8.696;2023-10-08T03:35:51;12.70;99.90
22742;DHT22;11538;48.884;8.696;2023-10-08T03:38:22;12.70;99.90
22742;DHT22;11538;48.884;8.696;2023-10-08T03:40:55;12.70;99.90
22742;DHT22;11538;48.884;8.696;2023-10-08T03:43:33;12.70;99.90
22742;DHT22;11538;48.884;8.696;2023-10-08T03:46:23;12.70;99.90
22742;DHT22;11538;48.884;8.696;2023-10-08T03:48:50;12.70;99.90
22742;DHT22;11538;48.884;8.696;2023-10-08T03:51:18;12.70;99.90
22742;DHT22;11538;48.884;8.696;2023-10-08T03:53:49;12.70;99.90
22742;DHT22;11538;48.884;8.696;2023-10-08T03:56:36;12.70;99.90
22742;DHT22;11538;48.884;8.696;2023-10-08T03:59:04;12.60;99.90
22742;DHT22;11538;48.884;8.696;2023-10-08T04:01:43;12.50;99.90
22742;DHT22;11538;48.884;8.696;2023-10-08T04:04:10;12.50;99.90
22742;DHT22;11538;48.884;8.696;2023-10-08T04:06:41;12.50;99.90
22742;DHT22;11538;48.884;8.696;2023-10-08T04:09:16;12.50;99.90
22742;DHT22;11538;48.884;8.696;2023-10-08T04:11:52;12.50;99.90
22742;DHT22;11538;48.884;8.696;2023-10-08T04:14:25;12.40;99.90
22742;DHT22;11538;48.884;8.696;2023-10-08T04:16:54;12.40;99.90
22742;DHT22;11538;48.884;8.696;2023-10-08T04:19:22;12.40;99.90
22742;DHT22;11538;48.884;8.696;2023-10-08T04:21:56;12.40;99.90
22742;DHT22;11538;48.884;8.696;2023-10-08T04:24:25;12.40;99.90
22742;DHT22;11538;48.884;8.696;2023-10-08T04:27:02;12.40;99.90
22742;DHT22;11538;48.884;8.696;2023-10-08T04:29:32;12.40;99.90
22742;DHT22;11538;48.884;8.696;2023-10-08T04:32:04;12.40;99.90
22742;DHT22;11538;48.884;8.696;2023-10-08T04:34:35;12.50;99.90
22742;DHT22;11538;48.884;8.696;2023-10-08T04:37:03;12.50;99.90
22742;DHT22;11538;48.884;8.696;2023-10-08T04:39:40;12.50;99.90
22742;DHT22;11538;48.884;8.696;2023-10-08T04:42:14;12.50;99.90
22742;DHT22;11538;48.884;8.696;2023-10-08T04:44:44;12.50;99.90
22742;DHT22;11538;48.884;8.696;2023-10-08T04:47:12;12.50;99.90
22742;DHT22;11538;48.884;8.696;2023-10-08T04:49:58;12.50;99.90
22742;DHT22;11538;48.884;8.696;2023-10-08T04:52:25;12.50;99.90
22742;DHT22;11538;48.884;8.696;2023-10-08T04:54:54;12.60;99.90
22742;DHT22;11538;48.884;8.696;2023-10-08T04:57:23;12.60;99.90
22742;DHT22;11538;48.884;8.696;2023-10-08T04:59:52;12.50;99.90
22742;DHT22;11538;48.884;8.696;2023-10-08T05:02:20;12.50;99.90
22742;DHT22;11538;48.884;8.696;2023-10-08T05:05:01;12.50;99.90
22742;DHT22;11538;48.884;8.696;2023-10-08T05:07:49;12.50;99.90
22742;DHT22;11538;48.884;8.696;2023-10-08T05:10:16;12.50;99.90
22742;DHT22;11538;48.884;8.696;2023-10-08T05:12:55;12.40;99.90
22742;DHT22;11538;48.884;8.696;2023-10-08T05:15:33;12.40;99.90
22742;DHT22;11538;48.884;8.696;2023-10-08T05:18:03;12.40;99.90
22742;DHT22;11538;48.884;8.696;2023-10-08T05:20:46;12.30;99.90
22742;DHT22;11538;48.884;8.696;2023-10-08T05:23:19;12.30;99.90
22742;DHT22;11538;48.884;8.696;2023-10-08T05:26:09;12.30;99.90
22742;DHT22;11538;48.884;8.696;2023-10-08T05:28:47;12.30;99.90
22742;DHT22;11538;48.884;8.696;2023-10-08T05:31:49;12.30;99.90
22742;DHT22;11538;48.884;8.696;2023-10-08T05:34:26;12.40;99.90
22742;DHT22;11538;48.884;8.696;2023-10-08T05:37:09;12.30;99.90
22742;DHT22;11538;48.884;8.696;2023-10-08T05:39:56;12.40;99.90
22742;DHT22;11538;48.884;8.696;2023-10-08T05:42:24;12.30;99.90
22742;DHT22;11538;48.884;8.696;2023-10-08T05:45:12;12.30;99.90
22742;DHT22;11538;48.884;8.696;2023-10-08T05:47:40;12.40;99.90
22742;DHT22;11538;48.884;8.696;2023-10-08T05:50:18;12.30;99.90
22742;DHT22;11538;48.884;8.696;2023-10-08T05:52:46;12.30;99.90
22742;DHT22;11538;48.884;8.696;2023-10-08T05:55:19;12.30;99.90
22742;DHT22;11538;48.884;8.696;2023-10-08T05:57:54;12.30;99.90
22742;DHT22;11538;48.884;8.696;2023-10-08T06:00:51;12.30;99.90
22742;DHT22;11538;48.884;8.696;2023-10-08T06:03:53;12.30;99.90
22742;DHT22;11538;48.884;8.696;2023-10-08T06:06:47;12.40;99.90
22742;DHT22;11538;48.884;8.696;2023-10-08T06:09:25;12.40;99.90
22742;DHT22;11538;48.884;8.696;2023-10-08T06:12:02;12.50;99.90
22742;DHT22;11538;48.884;8.696;2023-10-08T06:14:37;12.50;99.90
22742;DHT22;11538;48.884;8.696;2023-10-08T06:17:34;12.50;99.90
22742;DHT22;11538;48.884;8.696;2023-10-08T06:20:24;12.60;99.90
22742;DHT22;11538;48.884;8.696;2023-10-08T06:22:53;12.60;99.90
22742;DHT22;11538;48.884;8.696;2023-10-08T06:25:22;12.70;99.90
22742;DHT22;11538;48.884;8.696;2023-10-08T06:27:51;12.70;99.90
22742;DHT22;11538;48.884;8.696;2023-10-08T06:30:24;12.70;99.90
22742;DHT22;11538;48.884;8.696;2023-10-08T06:32:56;12.80;99.90
22742;DHT22;11538;48.884;8.696;2023-10-08T06:35:24;12.80;99.90
22742;DHT22;11538;48.884;8.696;2023-10-08T06:37:53;12.80;99.90
22742;DHT22;11538;48.884;8.696;2023-10-08T06:40:26;12.80;99.90
22742;DHT22;11538;48.884;8.696;2023-10-08T06:43:05;12.90;99.90
22742;DHT22;11538;48.884;8.696;2023-10-08T06:45:45;12.90;99.90
22742;DHT22;11538;48.884;8.696;2023-10-08T06:48:16;13.00;99.90
22742;DHT22;11538;48.884;8.696;2023-10-08T06:50:48;13.00;99.90
22742;DHT22;11538;48.884;8.696;2023-10-08T06:53:17;13.10;99.90
22742;DHT22;11538;48.884;8.696;2023-10-08T06:55:45;13.10;99.90
22742;DHT22;11538;48.884;8.696;2023-10-08T06:58:15;13.10;99.90
22742;DHT22;11538;48.884;8.696;2023-10-08T07:00:43;13.10;99.90
22742;DHT22;11538;48.884;8.696;2023-10-08T07:03:15;13.20;99.90
22742;DHT22;11538;48.884;8.696;2023-10-08T07:05:49;13.20;99.90
22742;DHT22;11538;48.884;8.696;2023-10-08T07:08:29;13.30;99.90
22742;DHT22;11538;48.884;8.696;2023-10-08T07:11:03;13.40;99.90
22742;DHT22;11538;48.884;8.696;2023-10-08T07:13:39;13.50;99.90
22742;DHT22;11538;48.884;8.696;2023-10-08T07:16:08;13.60;99.90
22742;DHT22;11538;48.884;8.696;2023-10-08T07:18:39;13.60;99.90
22742;DHT22;11538;48.884;8.696;2023-10-08T07:21:06;13.70;99.90
22742;DHT22;11538;48.884;8.696;2023-10-08T07:24:34;13.80;99.90
22742;DHT22;11538;48.884;8.696;2023-10-08T07:27:02;13.80;99.90
22742;DHT22;11538;48.884;8.696;2023-10-08T07:29:35;13.90;99.90
22742;DHT22;11538;48.884;8.696;2023-10-08T07:32:03;13.90;99.90
22742;DHT22;11538;48.884;8.696;2023-10-08T07:34:37;14.10;99.90
22742;DHT22;11538;48.884;8.696;2023-10-08T07:37:05;14.20;99.90
22742;DHT22;11538;48.884;8.696;2023-10-08T07:39:33;14.30;99.90
22742;DHT22;11538;48.884;8.696;2023-10-08T07:42:04;14.40;99.90
22742;DHT22;11538;48.884;8.696;2023-10-08T07:44:33;14.50;99.90
22742;DHT22;11538;48.884;8.696;2023-10-08T07:47:03;14.50;99.90
22742;DHT22;11538;48.884;8.696;2023-10-08T07:49:41;14.60;99.90
22742;DHT22;11538;48.884;8.696;2023-10-08T07:52:11;14.70;99.90
22742;DHT22;11538;48.884;8.696;2023-10-08T07:54:42;14.80;99.90
22742;DHT22;11538;48.884;8.696;2023-10-08T07:57:11;14.90;99.90
22742;DHT22;11538;48.884;8.696;2023-10-08T07:59:41;15.00;99.90
22742;DHT22;11538;48.884;8.696;2023-10-08T08:02:15;15.20;99.90
22742;DHT22;11538;48.884;8.696;2023-10-08T08:04:45;15.40;99.90
22742;DHT22;11538;48.884;8.696;2023-10-08T08:07:17;15.60;99.90
22742;DHT22;11538;48.884;8.696;2023-10-08T08:09:47;15.90;99.90
22742;DHT22;11538;48.884;8.696;2023-10-08T08:12:19;16.10;99.90
22742;DHT22;11538;48.884;8.696;2023-10-08T08:14:48;16.30;99.90
22742;DHT22;11538;48.884;8.696;2023-10-08T08:17:17;16.60;99.90
22742;DHT22;11538;48.884;8.696;2023-10-08T08:19:46;16.80;99.90
22742;DHT22;11538;48.884;8.696;2023-10-08T08:22:15;17.10;99.90
22742;DHT22;11538;48.884;8.696;2023-10-08T08:24:52;17.40;99.90
22742;DHT22;11538;48.884;8.696;2023-10-08T08:27:29;17.60;99.90
22742;DHT22;11538;48.884;8.696;2023-10-08T08:30:00;17.90;99.90
22742;DHT22;11538;48.884;8.696;2023-10-08T08:32:38;18.00;99.90
22742;DHT22;11538;48.884;8.696;2023-10-08T08:35:07;18.20;99.90
22742;DHT22;11538;48.884;8.696;2023-10-08T08:37:37;18.30;99.90
22742;DHT22;11538;48.884;8.696;2023-10-08T08:40:08;18.50;99.90
22742;DHT22;11538;48.884;8.696;2023-10-08T08:42:50;18.70;99.90
22742;DHT22;11538;48.884;8.696;2023-10-08T08:45:23;19.00;99.90
22742;DHT22;11538;48.884;8.696;2023-10-08T08:47:54;19.10;99.90
22742;DHT22;11538;48.884;8.696;2023-10-08T08:50:23;19.30;99.90
22742;DHT22;11538;48.884;8.696;2023-10-08T08:52:50;19.50;99.90
22742;DHT22;11538;48.884;8.696;2023-10-08T08:55:19;19.70;99.90
22742;DHT22;11538;48.884;8.696;2023-10-08T08:57:48;19.90;99.90
22742;DHT22;11538;48.884;8.696;2023-10-08T09:00:19;20.00;99.90
22742;DHT22;11538;48.884;8.696;2023-10-08T09:02:47;20.20;99.90
22742;DHT22;11538;48.884;8.696;2023-10-08T09:05:17;20.30;99.90
22742;DHT22;11538;48.884;8.696;2023-10-08T09:07:57;20.50;99.90
22742;DHT22;11538;48.884;8.696;2023-10-08T09:10:26;20.70;99.90
22742;DHT22;11538;48.884;8.696;2023-10-08T09:12:55;20.90;99.90
22742;DHT22;11538;48.884;8.696;2023-10-08T09:15:26;21.10;99.90
22742;DHT22;11538;48.884;8.696;2023-10-08T09:17:57;21.30;99.90
22742;DHT22;11538;48.884;8.696;2023-10-08T09:20:28;21.50;99.90
22742;DHT22;11538;48.884;8.696;2023-10-08T09:23:15;21.60;99.90
22742;DHT22;11538;48.884;8.696;2023-10-08T09:25:49;21.70;99.90
22742;DHT22;11538;48.884;8.696;2023-10-08T09:28:18;21.70;99.90
22742;DHT22;11538;48.884;8.696;2023-10-08T09:30:45;21.70;99.90
22742;DHT22;11538;48.884;8.696;2023-10-08T09:33:14;21.70;99.90
22742;DHT22;11538;48.884;8.696;2023-10-08T09:35:42;21.70;99.90
22742;DHT22;11538;48.884;8.696;2023-10-08T09:38:12;21.70;99.90
22742;DHT22;11538;48.884;8.696;2023-10-08T09:40:40;21.70;99.90
22742;DHT22;11538;48.884;8.696;2023-10-08T09:43:11;21.80;99.90
22742;DHT22;11538;48.884;8.696;2023-10-08T09:45:53;21.90;99.90
22742;DHT22;11538;48.884;8.696;2023-10-08T09:48:29;22.00;99.90
22742;DHT22;11538;48.884;8.696;2023-10-08T09:50:58;22.10;99.90
22742;DHT22;11538;48.884;8.696;2023-10-08T09:53:35;22.20;99.90
22742;DHT22;11538;48.884;8.696;2023-10-08T09:56:14;22.20;99.90
22742;DHT22;11538;48.884;8.696;2023-10-08T09:58:45;22.30;99.90
22742;DHT22;11538;48.884;8.696;2023-10-08T10:01:18;22.40;99.90
22742;DHT22;11538;48.884;8.696;2023-10-08T10:03:46;22.50;99.90
22742;DHT22;11538;48.884;8.696;2023-10-08T10:06:15;22.60;99.90
22742;DHT22;11538;48.884;8.696;2023-10-08T10:08:45;22.70;99.90
22742;DHT22;11538;48.884;8.696;2023-10-08T10:11:15;22.80;99.90
22742;DHT22;11538;48.884;8.696;2023-10-08T10:13:44;22.90;99.90
22742;DHT22;11538;48.884;8.696;2023-10-08T10:16:21;23.00;99.90
22742;DHT22;11538;48.884;8.696;2023-10-08T10:18:49;23.10;99.90
22742;DHT22;11538;48.884;8.696;2023-10-08T10:23:44;23.20;99.90
22742;DHT22;11538;48.884;8.696;2023-10-08T10:31:48;23.70;99.90
22742;DHT22;11538;48.884;8.696;2023-10-08T10:34:24;24.00;99.90
22742;DHT22;11538;48.884;8.696;2023-10-08T10:36:58;24.30;99.90
22742;DHT22;11538;48.884;8.696;2023-10-08T10:39:36;24.40;99.90
22742;DHT22;11538;48.884;8.696;2023-10-08T10:42:09;24.50;99.90
22742;DHT22;11538;48.884;8.696;2023-10-08T10:44:48;24.60;99.90
22742;DHT22;11538;48.884;8.696;2023-10-08T10:47:17;24.50;99.90
22742;DHT22;11538;48.884;8.696;2023-10-08T10:49:49;24.50;99.90
22742;DHT22;11538;48.884;8.696;2023-10-08T10:52:27;24.50;99.90
22742;DHT22;11538;48.884;8.696;2023-10-08T10:55:14;24.60;99.90
22742;DHT22;11538;48.884;8.696;2023-10-08T10:57:50;24.70;99.90
22742;DHT22;11538;48.884;8.696;2023-10-08T11:00:25;24.90;99.90
22742;DHT22;11538;48.884;8.696;2023-10-08T11:03:01;25.10;99.90
22742;DHT22;11538;48.884;8.696;2023-10-08T11:05:33;25.20;99.90
22742;DHT22;11538;48.884;8.696;2023-10-08T11:08:06;25.40;99.90
22742;DHT22;11538;48.884;8.696;2023-10-08T11:10:39;25.60;99.90
22742;DHT22;11538;48.884;8.696;2023-10-08T11:13:09;25.80;99.90
22742;DHT22;11538;48.884;8.696;2023-10-08T11:15:43;26.00;99.90
22742;DHT22;11538;48.884;8.696;2023-10-08T11:18:18;26.30;99.90
22742;DHT22;11538;48.884;8.696;2023-10-08T11:20:51;26.60;99.90
22742;DHT22;11538;48.884;8.696;2023-10-08T11:23:35;26.90;99.90
22742;DHT22;11538;48.884;8.696;2023-10-08T11:26:05;27.30;99.90
22742;DHT22;11538;48.884;8.696;2023-10-08T11:28:38;27.70;99.90
22742;DHT22;11538;48.884;8.696;2023-10-08T11:31:16;28.00;99.90
22742;DHT22;11538;48.884;8.696;2023-10-08T11:33:47;28.30;99.90
22742;DHT22;11538;48.884;8.696;2023-10-08T11:36:22;28.60;99.90
22742;DHT22;11538;48.884;8.696;2023-10-08T11:39:09;28.90;99.90
22742;DHT22;11538;48.884;8.696;2023-10-08T11:41:40;29.10;99.90
22742;DHT22;11538;48.884;8.696;2023-10-08T11:44:33;29.20;99.90
22742;DHT22;11538;48.884;8.696;2023-10-08T11:47:04;29.30;99.90
22742;DHT22;11538;48.884;8.696;2023-10-08T11:49:40;29.50;99.90
22742;DHT22;11538;48.884;8.696;2023-10-08T11:52:23;29.70;99.90
22742;DHT22;11538;48.884;8.696;2023-10-08T11:54:50;29.90;99.90
22742;DHT22;11538;48.884;8.696;2023-10-08T11:57:20;30.10;99.90
22742;DHT22;11538;48.884;8.696;2023-10-08T11:59:49;30.20;99.90
22742;DHT22;11538;48.884;8.696;2023-10-08T12:02:22;30.40;99.90
22742;DHT22;11538;48.884;8.696;2023-10-08T12:04:49;30.50;99.90
22742;DHT22;11538;48.884;8.696;2023-10-08T12:07:16;30.50;99.90
22742;DHT22;11538;48.884;8.696;2023-10-08T12:09:44;30.60;99.90
22742;DHT22;11538;48.884;8.696;2023-10-08T12:12:15;30.70;99.90
22742;DHT22;11538;48.884;8.696;2023-10-08T12:14:50;30.80;99.90
22742;DHT22;11538;48.884;8.696;2023-10-08T12:17:21;31.00;99.90
22742;DHT22;11538;48.884;8.696;2023-10-08T12:19:57;31.10;99.90
22742;DHT22;11538;48.884;8.696;2023-10-08T12:22:24;31.30;99.90
22742;DHT22;11538;48.884;8.696;2023-10-08T12:24:53;31.50;99.90
22742;DHT22;11538;48.884;8.696;2023-10-08T12:27:19;31.50;99.90
22742;DHT22;11538;48.884;8.696;2023-10-08T12:29:48;31.70;99.90
22742;DHT22;11538;48.884;8.696;2023-10-08T12:32:15;31.80;99.90
22742;DHT22;11538;48.884;8.696;2023-10-08T12:34:44;31.90;99.90
22742;DHT22;11538;48.884;8.696;2023-10-08T12:37:11;32.00;99.90
22742;DHT22;11538;48.884;8.696;2023-10-08T12:39:41;32.10;99.90
22742;DHT22;11538;48.884;8.696;2023-10-08T12:42:26;32.20;99.90
22742;DHT22;11538;48.884;8.696;2023-10-08T12:44:53;32.30;99.90
22742;DHT22;11538;48.884;8.696;2023-10-08T12:47:24;32.50;99.90
22742;DHT22;11538;48.884;8.696;2023-10-08T12:49:55;32.60;99.90
22742;DHT22;11538;48.884;8.696;2023-10-08T12:52:24;32.60;99.90
22742;DHT22;11538;48.884;8.696;2023-10-08T12:54:55;32.70;99.90
22742;DHT22;11538;48.884;8.696;2023-10-08T12:57:24;32.80;99.90
22742;DHT22;11538;48.884;8.696;2023-10-08T12:59:59;32.80;99.90
22742;DHT22;11538;48.884;8.696;2023-10-08T13:02:27;32.80;99.90
22742;DHT22;11538;48.884;8.696;2023-10-08T13:04:55;32.70;99.90
22742;DHT22;11538;48.884;8.696;2023-10-08T13:07:24;32.70;99.90
22742;DHT22;11538;48.884;8.696;2023-10-08T13:09:53;32.80;99.90
22742;DHT22;11538;48.884;8.696;2023-10-08T13:12:20;32.80;99.90
22742;DHT22;11538;48.884;8.696;2023-10-08T13:14:47;32.80;99.90
22742;DHT22;11538;48.884;8.696;2023-10-08T13:17:14;32.80;99.90
22742;DHT22;11538;48.884;8.696;2023-10-08T13:19:42;32.90;99.90
22742;DHT22;11538;48.884;8.696;2023-10-08T13:22:12;32.90;99.90
22742;DHT22;11538;48.884;8.696;2023-10-08T13:24:46;32.90;99.90
22742;DHT22;11538;48.884;8.696;2023-10-08T13:27:15;32.80;99.90
22742;DHT22;11538;48.884;8.696;2023-10-08T13:29:43;32.80;99.90
22742;DHT22;11538;48.884;8.696;2023-10-08T13:32:10;32.70;99.90
22742;DHT22;11538;48.884;8.696;2023-10-08T13:34:44;32.70;99.90
22742;DHT22;11538;48.884;8.696;2023-10-08T13:37:12;32.70;99.90
22742;DHT22;11538;48.884;8.696;2023-10-08T13:39:42;32.70;99.90
22742;DHT22;11538;48.884;8.696;2023-10-08T13:42:09;32.60;99.90
22742;DHT22;11538;48.884;8.696;2023-10-08T13:44:42;32.50;99.90
22742;DHT22;11538;48.884;8.696;2023-10-08T13:47:11;32.50;99.90
22742;DHT22;11538;48.884;8.696;2023-10-08T13:49:41;32.30;99.90
22742;DHT22;11538;48.884;8.696;2023-10-08T13:52:09;32.20;99.90
22742;DHT22;11538;48.884;8.696;2023-10-08T13:54:37;32.00;99.90
22742;DHT22;11538;48.884;8.696;2023-10-08T13:57:08;31.90;99.90
22742;DHT22;11538;48.884;8.696;2023-10-08T13:59:36;31.70;99.90
22742;DHT22;11538;48.884;8.696;2023-10-08T14:02:05;31.60;99.90
22742;DHT22;11538;48.884;8.696;2023-10-08T14:04:42;31.40;99.90
22742;DHT22;11538;48.884;8.696;2023-10-08T14:07:13;31.30;99.90
22742;DHT22;11538;48.884;8.696;2023-10-08T14:09:44;31.10;99.90
22742;DHT22;11538;48.884;8.696;2023-10-08T14:12:14;30.90;99.90
22742;DHT22;11538;48.884;8.696;2023-10-08T14:14:41;30.60;99.90
22742;DHT22;11538;48.884;8.696;2023-10-08T14:17:13;30.30;99.90
22742;DHT22;11538;48.884;8.696;2023-10-08T14:20:04;29.90;99.90
22742;DHT22;11538;48.884;8.696;2023-10-08T14:22:39;29.50;99.90
22742;DHT22;11538;48.884;8.696;2023-10-08T14:25:08;29.00;99.90
22742;DHT22;11538;48.884;8.696;2023-10-08T14:27:45;28.60;99.90
22742;DHT22;11538;48.884;8.696;2023-10-08T14:30:19;28.30;99.90
22742;DHT22;11538;48.884;8.696;2023-10-08T14:32:51;28.00;99.90
22742;DHT22;11538;48.884;8.696;2023-10-08T14:35:18;27.70;99.90
22742;DHT22;11538;48.884;8.696;2023-10-08T14:38:03;27.40;99.90
22742;DHT22;11538;48.884;8.696;2023-10-08T14:40:49;27.10;99.90
22742;DHT22;11538;48.884;8.696;2023-10-08T14:43:34;26.90;99.90
22742;DHT22;11538;48.884;8.696;2023-10-08T14:46:01;26.60;99.90
22742;DHT22;11538;48.884;8.696;2023-10-08T14:48:32;26.40;99.90
22742;DHT22;11538;48.884;8.696;2023-10-08T14:51:02;26.30;99.90
22742;DHT22;11538;48.884;8.696;2023-10-08T14:53:30;26.10;99.90
22742;DHT22;11538;48.884;8.696;2023-10-08T14:55:58;26.00;99.90
22742;DHT22;11538;48.884;8.696;2023-10-08T14:58:26;25.80;99.90
22742;DHT22;11538;48.884;8.696;2023-10-08T15:00:53;25.70;99.90
22742;DHT22;11538;48.884;8.696;2023-10-08T15:03:21;25.60;99.90
22742;DHT22;11538;48.884;8.696;2023-10-08T15:05:48;25.50;99.90
22742;DHT22;11538;48.884;8.696;2023-10-08T15:08:17;25.40;99.90
22742;DHT22;11538;48.884;8.696;2023-10-08T15:10:45;25.30;99.90
22742;DHT22;11538;48.884;8.696;2023-10-08T15:13:16;25.20;99.90
22742;DHT22;11538;48.884;8.696;2023-10-08T15:15:43;25.10;99.90
22742;DHT22;11538;48.884;8.696;2023-10-08T15:18:10;25.00;99.90
22742;DHT22;11538;48.884;8.696;2023-10-08T15:20:39;24.90;99.90
22742;DHT22;11538;48.884;8.696;2023-10-08T15:23:08;24.90;99.90
22742;DHT22;11538;48.884;8.696;2023-10-08T15:25:39;24.80;99.90
22742;DHT22;11538;48.884;8.696;2023-10-08T15:28:06;24.70;99.90
22742;DHT22;11538;48.884;8.696;2023-10-08T15:30:34;24.60;99.90
22742;DHT22;11538;48.884;8.696;2023-10-08T15:33:02;24.40;99.90
22742;DHT22;11538;48.884;8.696;2023-10-08T15:35:29;24.40;99.90
22742;DHT22;11538;48.884;8.696;2023-10-08T15:37:56;24.30;99.90
22742;DHT22;11538;48.884;8.696;2023-10-08T15:40:23;24.30;99.90
22742;DHT22;11538;48.884;8.696;2023-10-08T15:42:53;24.20;99.90
22742;DHT22;11538;48.884;8.696;2023-10-08T15:45:22;24.10;99.90
22742;DHT22;11538;48.884;8.696;2023-10-08T15:47:51;24.00;99.90
22742;DHT22;11538;48.884;8.696;2023-10-08T15:50:19;23.90;99.90
22742;DHT22;11538;48.884;8.696;2023-10-08T15:52:51;23.80;99.90
22742;DHT22;11538;48.884;8.696;2023-10-08T15:55:20;23.80;99.90
22742;DHT22;11538;48.884;8.696;2023-10-08T15:57:49;23.70;99.90
22742;DHT22;11538;48.884;8.696;2023-10-08T16:00:16;23.60;99.90
22742;DHT22;11538;48.884;8.696;2023-10-08T16:02:45;23.50;99.90
22742;DHT22;11538;48.884;8.696;2023-10-08T16:05:14;23.40;99.90
22742;DHT22;11538;48.884;8.696;2023-10-08T16:07:43;23.40;99.90
22742;DHT22;11538;48.884;8.696;2023-10-08T16:10:10;23.30;99.90
22742;DHT22;11538;48.884;8.696;2023-10-08T16:12:37;23.10;99.90